sensor_id;sensor_type;location;lat;lon;timestamp;P1;durP1;ratioP1;P2;durP2;ratioP2
40122;SDS011;25832;45.490;4.912;2023-02-01T00:00:14;16.52;;;10.02;;
40122;SDS011;25832;45.490;4.912;2023-02-01T00:02:40;15.23;;;9.18;;
40122;SDS011;25832;45.490;4.912;2023-02-01T00:05:09;16.42;;;9.43;;
40122;SDS011;25832;45.490;4.912;2023-02-01T00:07:36;16.05;;;9.77;;
40122;SDS011;25832;45.490;4.912;2023-02-01T00:10:02;15.27;;;9.45;;
40122;SDS011;25832;45.490;4.912;2023-02-01T00:12:29;12.82;;;8.80;;
40122;SDS011;25832;45.490;4.912;2023-02-01T00:14:56;17.42;;;9.13;;
40122;SDS011;25832;45.490;4.912;2023-02-01T00:17:22;13.32;;;9.10;;
40122;SDS011;25832;45.490;4.912;2023-02-01T00:19:47;16.52;;;9.18;;
40122;SDS011;25832;45.490;4.912;2023-02-01T00:22:13;17.20;;;9.68;;
40122;SDS011;25832;45.490;4.912;2023-02-01T00:24:39;14.63;;;9.38;;
40122;SDS011;25832;45.490;4.912;2023-02-01T00:27:05;18.48;;;10.05;;
40122;SDS011;25832;45.490;4.912;2023-02-01T00:29:30;15.38;;;8.93;;
40122;SDS011;25832;45.490;4.912;2023-02-01T00:31:56;19.45;;;10.02;;
40122;SDS011;25832;45.490;4.912;2023-02-01T00:34:22;16.08;;;9.82;;
40122;SDS011;25832;45.490;4.912;2023-02-01T00:36:47;14.20;;;10.20;;
40122;SDS011;25832;45.490;4.912;2023-02-01T00:39:13;14.88;;;9.70;;
40122;SDS011;25832;45.490;4.912;2023-02-01T00:41:40;17.02;;;9.45;;
40122;SDS011;25832;45.490;4.912;2023-02-01T00:44:05;21.20;;;10.13;;
40122;SDS011;25832;45.490;4.912;2023-02-01T00:46:31;15.57;;;9.63;;
40122;SDS011;25832;45.490;4.912;2023-02-01T00:48:57;17.10;;;8.90;;
40122;SDS011;25832;45.490;4.912;2023-02-01T00:51:24;15.07;;;10.13;;
40122;SDS011;25832;45.490;4.912;2023-02-01T00:53:51;17.25;;;9.32;;
40122;SDS011;25832;45.490;4.912;2023-02-01T00:56:18;14.15;;;9.02;;
40122;SDS011;25832;45.490;4.912;2023-02-01T00:58:44;13.93;;;9.43;;
40122;SDS011;25832;45.490;4.912;2023-02-01T01:01:14;17.13;;;9.90;;
40122;SDS011;25832;45.490;4.912;2023-02-01T01:03:42;17.10;;;10.38;;
40122;SDS011;25832;45.490;4.912;2023-02-01T01:06:10;16.17;;;9.93;;
40122;SDS011;25832;45.490;4.912;2023-02-01T01:08:38;19.88;;;10.88;;
40122;SDS011;25832;45.490;4.912;2023-02-01T01:11:09;20.35;;;11.57;;
40122;SDS011;25832;45.490;4.912;2023-02-01T01:13:36;21.40;;;11.52;;
40122;SDS011;25832;45.490;4.912;2023-02-01T01:16:02;20.73;;;12.68;;
40122;SDS011;25832;45.490;4.912;2023-02-01T01:18:29;22.25;;;11.77;;
40122;SDS011;25832;45.490;4.912;2023-02-01T01:20:56;24.02;;;12.32;;
40122;SDS011;25832;45.490;4.912;2023-02-01T01:23:22;21.95;;;12.00;;
40122;SDS011;25832;45.490;4.912;2023-02-01T01:25:48;22.73;;;12.40;;
40122;SDS011;25832;45.490;4.912;2023-02-01T01:28:14;19.70;;;11.20;;
40122;SDS011;25832;45.490;4.912;2023-02-01T01:30:40;21.75;;;11.23;;
40122;SDS011;25832;45.490;4.912;2023-02-01T01:33:05;18.77;;;10.90;;
40122;SDS011;25832;45.490;4.912;2023-02-01T01:35:32;22.52;;;12.45;;
40122;SDS011;25832;45.490;4.912;2023-02-01T01:37:58;20.92;;;13.07;;
40122;SDS011;25832;45.490;4.912;2023-02-01T01:40:25;19.15;;;11.25;;
40122;SDS011;25832;45.490;4.912;2023-02-01T01:42:51;21.83;;;12.85;;
40122;SDS011;25832;45.490;4.912;2023-02-01T01:47:53;19.77;;;11.40;;
40122;SDS011;25832;45.490;4.912;2023-02-01T01:50:32;21.27;;;13.18;;
40122;SDS011;25832;45.490;4.912;2023-02-01T01:53:02;21.13;;;12.05;;
40122;SDS011;25832;45.490;4.912;2023-02-01T01:55:31;20.67;;;13.17;;
40122;SDS011;25832;45.490;4.912;2023-02-01T01:58:02;24.58;;;12.75;;
40122;SDS011;25832;45.490;4.912;2023-02-01T02:00:31;19.75;;;12.88;;
40122;SDS011;25832;45.490;4.912;2023-02-01T02:03:03;19.63;;;11.52;;
40122;SDS011;25832;45.490;4.912;2023-02-01T02:05:53;17.92;;;11.73;;
40122;SDS011;25832;45.490;4.912;2023-02-01T02:08:22;18.63;;;11.30;;
40122;SDS011;25832;45.490;4.912;2023-02-01T02:10:50;17.17;;;10.95;;
40122;SDS011;25832;45.490;4.912;2023-02-01T02:13:32;19.20;;;11.43;;
40122;SDS011;25832;45.490;4.912;2023-02-01T02:21:53;16.30;;;9.88;;
40122;SDS011;25832;45.490;4.912;2023-02-01T02:44:06;21.35;;;11.55;;
40122;SDS011;25832;45.490;4.912;2023-02-01T02:47:18;23.90;;;11.82;;
40122;SDS011;25832;45.490;4.912;2023-02-01T02:50:02;21.27;;;11.93;;
40122;SDS011;25832;45.490;4.912;2023-02-01T02:52:51;18.88;;;12.18;;
40122;SDS011;25832;45.490;4.912;2023-02-01T02:55:45;19.23;;;10.98;;
40122;SDS011;25832;45.490;4.912;2023-02-01T02:58:11;25.45;;;13.77;;
40122;SDS011;25832;45.490;4.912;2023-02-01T03:00:57;22.08;;;11.75;;
40122;SDS011;25832;45.490;4.912;2023-02-01T03:03:42;20.48;;;12.60;;
40122;SDS011;25832;45.490;4.912;2023-02-01T03:06:33;18.70;;;12.60;;
40122;SDS011;25832;45.490;4.912;2023-02-01T03:08:59;19.30;;;11.88;;
40122;SDS011;25832;45.490;4.912;2023-02-01T03:11:29;16.40;;;10.70;;
40122;SDS011;25832;45.490;4.912;2023-02-01T03:14:15;16.42;;;11.20;;
40122;SDS011;25832;45.490;4.912;2023-02-01T03:16:46;21.73;;;12.48;;
40122;SDS011;25832;45.490;4.912;2023-02-01T03:22:08;21.85;;;12.15;;
40122;SDS011;25832;45.490;4.912;2023-02-01T03:29:35;22.25;;;12.82;;
40122;SDS011;25832;45.490;4.912;2023-02-01T03:32:05;21.42;;;13.07;;
40122;SDS011;25832;45.490;4.912;2023-02-01T03:34:32;21.17;;;12.63;;
40122;SDS011;25832;45.490;4.912;2023-02-01T03:36:59;23.15;;;12.02;;
40122;SDS011;25832;45.490;4.912;2023-02-01T03:39:48;19.83;;;11.85;;
40122;SDS011;25832;45.490;4.912;2023-02-01T03:42:28;16.58;;;11.57;;
40122;SDS011;25832;45.490;4.912;2023-02-01T03:45:22;19.33;;;11.95;;
40122;SDS011;25832;45.490;4.912;2023-02-01T03:47:47;18.98;;;11.00;;
40122;SDS011;25832;45.490;4.912;2023-02-01T03:50:18;19.57;;;11.20;;
40122;SDS011;25832;45.490;4.912;2023-02-01T03:55:34;21.25;;;11.82;;
40122;SDS011;25832;45.490;4.912;2023-02-01T03:58:04;17.70;;;10.57;;
40122;SDS011;25832;45.490;4.912;2023-02-01T04:00:37;15.35;;;9.73;;
40122;SDS011;25832;45.490;4.912;2023-02-01T04:03:04;26.23;;;11.07;;
40122;SDS011;25832;45.490;4.912;2023-02-01T04:05:32;21.17;;;9.95;;
40122;SDS011;25832;45.490;4.912;2023-02-01T04:07:58;14.45;;;10.20;;
40122;SDS011;25832;45.490;4.912;2023-02-01T04:10:24;15.52;;;10.55;;
40122;SDS011;25832;45.490;4.912;2023-02-01T04:12:50;18.70;;;10.95;;
40122;SDS011;25832;45.490;4.912;2023-02-01T04:15:16;16.58;;;10.57;;
40122;SDS011;25832;45.490;4.912;2023-02-01T04:17:41;21.25;;;12.77;;
40122;SDS011;25832;45.490;4.912;2023-02-01T04:20:07;18.25;;;11.75;;
40122;SDS011;25832;45.490;4.912;2023-02-01T04:22:34;18.85;;;11.65;;
40122;SDS011;25832;45.490;4.912;2023-02-01T04:24:59;18.58;;;11.10;;
40122;SDS011;25832;45.490;4.912;2023-02-01T04:27:25;16.52;;;10.88;;
40122;SDS011;25832;45.490;4.912;2023-02-01T04:29:51;17.15;;;10.60;;
40122;SDS011;25832;45.490;4.912;2023-02-01T04:32:17;15.65;;;10.13;;
40122;SDS011;25832;45.490;4.912;2023-02-01T04:34:44;18.48;;;10.13;;
40122;SDS011;25832;45.490;4.912;2023-02-01T04:37:10;17.48;;;10.77;;
40122;SDS011;25832;45.490;4.912;2023-02-01T04:39:36;24.17;;;11.52;;
40122;SDS011;25832;45.490;4.912;2023-02-01T04:42:02;19.92;;;10.13;;
40122;SDS011;25832;45.490;4.912;2023-02-01T04:44:28;17.60;;;11.00;;
40122;SDS011;25832;45.490;4.912;2023-02-01T04:46:53;18.35;;;10.35;;
40122;SDS011;25832;45.490;4.912;2023-02-01T04:49:19;21.25;;;11.25;;
40122;SDS011;25832;45.490;4.912;2023-02-01T04:51:46;17.58;;;10.75;;
40122;SDS011;25832;45.490;4.912;2023-02-01T04:54:12;18.85;;;11.50;;
40122;SDS011;25832;45.490;4.912;2023-02-01T04:56:38;19.67;;;11.30;;
40122;SDS011;25832;45.490;4.912;2023-02-01T04:59:04;21.05;;;11.85;;
40122;SDS011;25832;45.490;4.912;2023-02-01T05:01:30;24.00;;;12.60;;
40122;SDS011;25832;45.490;4.912;2023-02-01T05:03:56;19.98;;;11.02;;
40122;SDS011;25832;45.490;4.912;2023-02-01T05:06:22;19.88;;;11.65;;
40122;SDS011;25832;45.490;4.912;2023-02-01T05:08:48;18.80;;;11.05;;
40122;SDS011;25832;45.490;4.912;2023-02-01T05:11:15;16.95;;;10.70;;
40122;SDS011;25832;45.490;4.912;2023-02-01T05:13:59;18.90;;;10.32;;
40122;SDS011;25832;45.490;4.912;2023-02-01T05:16:25;21.13;;;10.63;;
40122;SDS011;25832;45.490;4.912;2023-02-01T05:18:51;15.65;;;9.48;;
40122;SDS011;25832;45.490;4.912;2023-02-01T05:21:18;17.90;;;10.93;;
40122;SDS011;25832;45.490;4.912;2023-02-01T05:23:43;17.25;;;11.23;;
40122;SDS011;25832;45.490;4.912;2023-02-01T05:26:28;19.45;;;11.98;;
40122;SDS011;25832;45.490;4.912;2023-02-01T05:28:53;16.85;;;11.70;;
40122;SDS011;25832;45.490;4.912;2023-02-01T05:31:20;22.73;;;12.68;;
40122;SDS011;25832;45.490;4.912;2023-02-01T05:33:46;19.92;;;11.38;;
40122;SDS011;25832;45.490;4.912;2023-02-01T05:36:12;21.30;;;13.10;;
40122;SDS011;25832;45.490;4.912;2023-02-01T05:38:37;19.48;;;11.95;;
40122;SDS011;25832;45.490;4.912;2023-02-01T05:41:03;27.98;;;14.20;;
40122;SDS011;25832;45.490;4.912;2023-02-01T05:43:29;17.58;;;11.15;;
40122;SDS011;25832;45.490;4.912;2023-02-01T05:45:55;23.10;;;12.60;;
40122;SDS011;25832;45.490;4.912;2023-02-01T05:48:20;27.02;;;14.27;;
40122;SDS011;25832;45.490;4.912;2023-02-01T05:50:46;22.27;;;13.48;;
40122;SDS011;25832;45.490;4.912;2023-02-01T05:53:12;24.55;;;15.30;;
40122;SDS011;25832;45.490;4.912;2023-02-01T05:55:37;23.60;;;15.43;;
40122;SDS011;25832;45.490;4.912;2023-02-01T05:58:03;23.55;;;14.05;;
40122;SDS011;25832;45.490;4.912;2023-02-01T06:00:30;23.48;;;13.57;;
40122;SDS011;25832;45.490;4.912;2023-02-01T06:02:56;25.13;;;14.55;;
40122;SDS011;25832;45.490;4.912;2023-02-01T06:05:21;22.33;;;14.27;;
40122;SDS011;25832;45.490;4.912;2023-02-01T06:07:47;21.67;;;13.48;;
40122;SDS011;25832;45.490;4.912;2023-02-01T06:10:15;22.67;;;14.27;;
40122;SDS011;25832;45.490;4.912;2023-02-01T06:12:42;24.15;;;14.13;;
40122;SDS011;25832;45.490;4.912;2023-02-01T06:15:09;23.48;;;14.23;;
40122;SDS011;25832;45.490;4.912;2023-02-01T06:17:36;26.83;;;14.48;;
40122;SDS011;25832;45.490;4.912;2023-02-01T06:20:03;23.20;;;14.68;;
40122;SDS011;25832;45.490;4.912;2023-02-01T06:22:31;22.13;;;14.15;;
40122;SDS011;25832;45.490;4.912;2023-02-01T06:24:57;22.48;;;14.63;;
40122;SDS011;25832;45.490;4.912;2023-02-01T06:27:24;24.52;;;14.88;;
40122;SDS011;25832;45.490;4.912;2023-02-01T06:29:50;25.25;;;14.05;;
40122;SDS011;25832;45.490;4.912;2023-02-01T06:32:16;22.98;;;14.60;;
40122;SDS011;25832;45.490;4.912;2023-02-01T06:34:42;21.30;;;13.38;;
40122;SDS011;25832;45.490;4.912;2023-02-01T06:37:08;23.63;;;14.40;;
40122;SDS011;25832;45.490;4.912;2023-02-01T06:39:36;25.92;;;15.40;;
40122;SDS011;25832;45.490;4.912;2023-02-01T06:42:02;24.00;;;14.20;;
40122;SDS011;25832;45.490;4.912;2023-02-01T06:44:28;19.67;;;12.70;;
40122;SDS011;25832;45.490;4.912;2023-02-01T06:46:53;22.25;;;14.25;;
40122;SDS011;25832;45.490;4.912;2023-02-01T06:49:19;22.42;;;13.77;;
40122;SDS011;25832;45.490;4.912;2023-02-01T06:51:45;25.30;;;14.27;;
40122;SDS011;25832;45.490;4.912;2023-02-01T06:54:11;29.25;;;16.98;;
40122;SDS011;25832;45.490;4.912;2023-02-01T06:56:37;33.10;;;17.67;;
40122;SDS011;25832;45.490;4.912;2023-02-01T06:59:03;30.63;;;18.00;;
40122;SDS011;25832;45.490;4.912;2023-02-01T07:01:30;25.55;;;15.82;;
40122;SDS011;25832;45.490;4.912;2023-02-01T07:03:55;28.02;;;14.85;;
40122;SDS011;25832;45.490;4.912;2023-02-01T07:06:21;23.13;;;14.82;;
40122;SDS011;25832;45.490;4.912;2023-02-01T07:08:47;25.30;;;15.23;;
40122;SDS011;25832;45.490;4.912;2023-02-01T07:11:13;25.95;;;14.65;;
40122;SDS011;25832;45.490;4.912;2023-02-01T07:13:40;21.67;;;14.20;;
40122;SDS011;25832;45.490;4.912;2023-02-01T07:16:06;27.33;;;16.15;;
40122;SDS011;25832;45.490;4.912;2023-02-01T07:18:37;30.20;;;15.80;;
40122;SDS011;25832;45.490;4.912;2023-02-01T07:21:03;26.20;;;14.10;;
40122;SDS011;25832;45.490;4.912;2023-02-01T07:23:28;25.23;;;13.38;;
40122;SDS011;25832;45.490;4.912;2023-02-01T07:25:58;25.90;;;13.85;;
40122;SDS011;25832;45.490;4.912;2023-02-01T07:28:25;21.35;;;14.32;;
40122;SDS011;25832;45.490;4.912;2023-02-01T07:30:53;26.05;;;12.80;;
40122;SDS011;25832;45.490;4.912;2023-02-01T07:33:22;23.23;;;13.05;;
40122;SDS011;25832;45.490;4.912;2023-02-01T07:35:49;22.40;;;11.90;;
40122;SDS011;25832;45.490;4.912;2023-02-01T07:38:15;19.98;;;12.55;;
40122;SDS011;25832;45.490;4.912;2023-02-01T07:40:41;21.33;;;13.43;;
40122;SDS011;25832;45.490;4.912;2023-02-01T07:43:07;22.08;;;12.57;;
40122;SDS011;25832;45.490;4.912;2023-02-01T07:45:33;23.52;;;12.55;;
40122;SDS011;25832;45.490;4.912;2023-02-01T07:48:00;20.92;;;13.27;;
40122;SDS011;25832;45.490;4.912;2023-02-01T07:50:26;26.45;;;12.73;;
40122;SDS011;25832;45.490;4.912;2023-02-01T07:52:52;23.98;;;13.50;;
40122;SDS011;25832;45.490;4.912;2023-02-01T07:55:19;21.40;;;12.82;;
40122;SDS011;25832;45.490;4.912;2023-02-01T07:57:45;22.48;;;12.75;;
40122;SDS011;25832;45.490;4.912;2023-02-01T08:00:12;25.77;;;14.15;;
40122;SDS011;25832;45.490;4.912;2023-02-01T08:03:00;24.70;;;13.82;;
40122;SDS011;25832;45.490;4.912;2023-02-01T08:05:26;21.38;;;13.23;;
40122;SDS011;25832;45.490;4.912;2023-02-01T08:07:52;20.52;;;12.52;;
40122;SDS011;25832;45.490;4.912;2023-02-01T08:10:18;24.52;;;14.88;;
40122;SDS011;25832;45.490;4.912;2023-02-01T08:12:44;22.80;;;13.73;;
40122;SDS011;25832;45.490;4.912;2023-02-01T08:15:16;25.40;;;15.20;;
40122;SDS011;25832;45.490;4.912;2023-02-01T08:17:49;23.83;;;13.55;;
40122;SDS011;25832;45.490;4.912;2023-02-01T08:20:16;26.48;;;14.80;;
40122;SDS011;25832;45.490;4.912;2023-02-01T08:22:42;29.13;;;14.15;;
40122;SDS011;25832;45.490;4.912;2023-02-01T08:25:08;26.48;;;12.73;;
40122;SDS011;25832;45.490;4.912;2023-02-01T08:27:34;20.35;;;12.48;;
40122;SDS011;25832;45.490;4.912;2023-02-01T08:30:00;22.48;;;12.27;;
40122;SDS011;25832;45.490;4.912;2023-02-01T08:32:26;18.55;;;11.15;;
40122;SDS011;25832;45.490;4.912;2023-02-01T08:34:52;28.65;;;12.32;;
40122;SDS011;25832;45.490;4.912;2023-02-01T08:37:18;17.70;;;10.10;;
40122;SDS011;25832;45.490;4.912;2023-02-01T08:39:43;23.70;;;12.85;;
40122;SDS011;25832;45.490;4.912;2023-02-01T08:42:09;19.13;;;10.75;;
40122;SDS011;25832;45.490;4.912;2023-02-01T08:44:54;19.23;;;12.05;;
40122;SDS011;25832;45.490;4.912;2023-02-01T08:47:20;25.70;;;13.43;;
40122;SDS011;25832;45.490;4.912;2023-02-01T08:49:45;21.80;;;10.65;;
40122;SDS011;25832;45.490;4.912;2023-02-01T08:52:11;115.50;;;39.90;;
40122;SDS011;25832;45.490;4.912;2023-02-01T08:54:37;48.90;;;21.80;;
40122;SDS011;25832;45.490;4.912;2023-02-01T08:57:05;23.52;;;11.93;;
40122;SDS011;25832;45.490;4.912;2023-02-01T08:59:30;21.88;;;11.80;;
40122;SDS011;25832;45.490;4.912;2023-02-01T09:01:56;24.42;;;11.27;;
40122;SDS011;25832;45.490;4.912;2023-02-01T09:04:22;22.50;;;11.20;;
40122;SDS011;25832;45.490;4.912;2023-02-01T09:06:47;14.32;;;9.55;;
40122;SDS011;25832;45.490;4.912;2023-02-01T09:09:13;21.02;;;10.27;;
40122;SDS011;25832;45.490;4.912;2023-02-01T09:11:39;18.52;;;10.50;;
40122;SDS011;25832;45.490;4.912;2023-02-01T09:14:04;18.23;;;11.25;;
40122;SDS011;25832;45.490;4.912;2023-02-01T09:16:31;23.77;;;13.20;;
40122;SDS011;25832;45.490;4.912;2023-02-01T09:18:56;21.65;;;11.02;;
40122;SDS011;25832;45.490;4.912;2023-02-01T09:21:22;16.88;;;9.52;;
40122;SDS011;25832;45.490;4.912;2023-02-01T09:23:49;18.65;;;9.10;;
40122;SDS011;25832;45.490;4.912;2023-02-01T09:26:16;14.00;;;9.88;;
40122;SDS011;25832;45.490;4.912;2023-02-01T09:28:41;19.95;;;10.38;;
40122;SDS011;25832;45.490;4.912;2023-02-01T09:31:07;19.02;;;10.68;;
40122;SDS011;25832;45.490;4.912;2023-02-01T09:33:33;15.60;;;8.75;;
40122;SDS011;25832;45.490;4.912;2023-02-01T09:35:59;16.55;;;9.18;;
40122;SDS011;25832;45.490;4.912;2023-02-01T09:38:26;15.18;;;8.13;;
40122;SDS011;25832;45.490;4.912;2023-02-01T09:40:52;17.40;;;9.38;;
40122;SDS011;25832;45.490;4.912;2023-02-01T09:48:52;15.95;;;10.02;;
40122;SDS011;25832;45.490;4.912;2023-02-01T09:51:38;17.73;;;9.63;;
40122;SDS011;25832;45.490;4.912;2023-02-01T09:54:10;17.38;;;9.65;;
40122;SDS011;25832;45.490;4.912;2023-02-01T09:59:38;18.23;;;10.07;;
40122;SDS011;25832;45.490;4.912;2023-02-01T10:02:14;20.20;;;10.70;;
40122;SDS011;25832;45.490;4.912;2023-02-01T10:04:46;18.83;;;9.77;;
40122;SDS011;25832;45.490;4.912;2023-02-01T10:10:10;16.48;;;9.60;;
40122;SDS011;25832;45.490;4.912;2023-02-01T10:18:37;15.68;;;8.00;;
40122;SDS011;25832;45.490;4.912;2023-02-01T10:21:28;13.60;;;9.15;;
40122;SDS011;25832;45.490;4.912;2023-02-01T10:29:34;14.40;;;7.65;;
40122;SDS011;25832;45.490;4.912;2023-02-01T10:32:09;17.50;;;8.48;;
40122;SDS011;25832;45.490;4.912;2023-02-01T10:34:52;16.75;;;8.20;;
40122;SDS011;25832;45.490;4.912;2023-02-01T10:37:32;19.63;;;7.82;;
40122;SDS011;25832;45.490;4.912;2023-02-01T10:40:00;16.60;;;7.88;;
40122;SDS011;25832;45.490;4.912;2023-02-01T10:42:45;18.33;;;8.63;;
40122;SDS011;25832;45.490;4.912;2023-02-01T10:45:16;13.85;;;8.15;;
40122;SDS011;25832;45.490;4.912;2023-02-01T10:47:45;14.25;;;7.68;;
40122;SDS011;25832;45.490;4.912;2023-02-01T10:52:58;18.60;;;8.48;;
40122;SDS011;25832;45.490;4.912;2023-02-01T10:55:33;11.45;;;8.02;;
40122;SDS011;25832;45.490;4.912;2023-02-01T10:58:26;12.82;;;7.60;;
40122;SDS011;25832;45.490;4.912;2023-02-01T11:01:04;13.75;;;8.02;;
40122;SDS011;25832;45.490;4.912;2023-02-01T11:03:33;15.13;;;8.77;;
40122;SDS011;25832;45.490;4.912;2023-02-01T11:08:42;24.17;;;8.05;;
40122;SDS011;25832;45.490;4.912;2023-02-01T11:11:10;12.48;;;7.55;;
40122;SDS011;25832;45.490;4.912;2023-02-01T11:13:37;14.23;;;8.43;;
40122;SDS011;25832;45.490;4.912;2023-02-01T11:16:04;16.63;;;7.75;;
40122;SDS011;25832;45.490;4.912;2023-02-01T11:18:33;11.93;;;8.32;;
40122;SDS011;25832;45.490;4.912;2023-02-01T11:21:02;14.25;;;8.00;;
40122;SDS011;25832;45.490;4.912;2023-02-01T11:23:29;12.00;;;7.50;;
40122;SDS011;25832;45.490;4.912;2023-02-01T11:26:10;17.17;;;8.87;;
40122;SDS011;25832;45.490;4.912;2023-02-01T11:28:48;12.98;;;6.72;;
40122;SDS011;25832;45.490;4.912;2023-02-01T11:31:23;11.82;;;7.63;;
40122;SDS011;25832;45.490;4.912;2023-02-01T11:33:51;14.68;;;7.00;;
40122;SDS011;25832;45.490;4.912;2023-02-01T11:36:21;15.10;;;7.45;;
40122;SDS011;25832;45.490;4.912;2023-02-01T11:39:09;13.05;;;7.35;;
40122;SDS011;25832;45.490;4.912;2023-02-01T11:44:35;14.57;;;7.38;;
40122;SDS011;25832;45.490;4.912;2023-02-01T11:47:45;11.25;;;6.40;;
40122;SDS011;25832;45.490;4.912;2023-02-01T11:49:56;12.40;;;7.55;;
40122;SDS011;25832;45.490;4.912;2023-02-01T12:03:13;9.52;;;5.97;;
40122;SDS011;25832;45.490;4.912;2023-02-01T12:08:47;13.38;;;6.35;;
40122;SDS011;25832;45.490;4.912;2023-02-01T12:17:12;19.42;;;6.95;;
40122;SDS011;25832;45.490;4.912;2023-02-01T12:25:41;12.90;;;5.77;;
40122;SDS011;25832;45.490;4.912;2023-02-01T12:28:31;8.30;;;4.85;;
40122;SDS011;25832;45.490;4.912;2023-02-01T12:31:10;6.72;;;5.00;;
40122;SDS011;25832;45.490;4.912;2023-02-01T12:39:52;7.15;;;5.38;;
40122;SDS011;25832;45.490;4.912;2023-02-01T12:42:36;15.73;;;6.15;;
40122;SDS011;25832;45.490;4.912;2023-02-01T12:45:20;9.57;;;5.00;;
40122;SDS011;25832;45.490;4.912;2023-02-01T12:48:12;10.52;;;5.45;;
40122;SDS011;25832;45.490;4.912;2023-02-01T12:51:23;8.27;;;4.65;;
40122;SDS011;25832;45.490;4.912;2023-02-01T12:56:47;12.73;;;5.65;;
40122;SDS011;25832;45.490;4.912;2023-02-01T12:59:32;10.07;;;5.05;;
40122;SDS011;25832;45.490;4.912;2023-02-01T13:05:11;10.85;;;4.63;;
40122;SDS011;25832;45.490;4.912;2023-02-01T13:07:42;9.65;;;5.47;;
40122;SDS011;25832;45.490;4.912;2023-02-01T13:13:03;15.75;;;7.38;;
40122;SDS011;25832;45.490;4.912;2023-02-01T13:15:49;8.77;;;5.65;;
40122;SDS011;25832;45.490;4.912;2023-02-01T13:18:37;12.10;;;6.80;;
40122;SDS011;25832;45.490;4.912;2023-02-01T13:21:18;9.63;;;5.13;;
40122;SDS011;25832;45.490;4.912;2023-02-01T13:23:57;10.07;;;5.60;;
40122;SDS011;25832;45.490;4.912;2023-02-01T13:26:23;10.68;;;5.68;;
40122;SDS011;25832;45.490;4.912;2023-02-01T13:28:50;8.35;;;5.10;;
40122;SDS011;25832;45.490;4.912;2023-02-01T13:34:48;8.13;;;4.63;;
40122;SDS011;25832;45.490;4.912;2023-02-01T13:37:56;10.82;;;4.68;;
40122;SDS011;25832;45.490;4.912;2023-02-01T13:43:21;6.80;;;4.45;;
40122;SDS011;25832;45.490;4.912;2023-02-01T13:45:53;11.00;;;4.50;;
40122;SDS011;25832;45.490;4.912;2023-02-01T13:48:27;7.13;;;3.83;;
40122;SDS011;25832;45.490;4.912;2023-02-01T13:51:04;8.70;;;4.07;;
40122;SDS011;25832;45.490;4.912;2023-02-01T13:53:32;10.35;;;4.50;;
40122;SDS011;25832;45.490;4.912;2023-02-01T14:04:00;4.50;;;3.17;;
40122;SDS011;25832;45.490;4.912;2023-02-01T14:09:13;4.90;;;3.63;;
40122;SDS011;25832;45.490;4.912;2023-02-01T14:15:22;6.30;;;3.58;;
40122;SDS011;25832;45.490;4.912;2023-02-01T14:17:50;8.90;;;4.65;;
40122;SDS011;25832;45.490;4.912;2023-02-01T14:23:11;7.03;;;3.83;;
40122;SDS011;25832;45.490;4.912;2023-02-01T14:25:41;7.45;;;4.45;;
40122;SDS011;25832;45.490;4.912;2023-02-01T14:28:18;10.98;;;5.13;;
40122;SDS011;25832;45.490;4.912;2023-02-01T14:30:50;10.60;;;3.72;;
40122;SDS011;25832;45.490;4.912;2023-02-01T14:33:23;9.82;;;3.45;;
40122;SDS011;25832;45.490;4.912;2023-02-01T14:36:10;6.15;;;3.15;;
40122;SDS011;25832;45.490;4.912;2023-02-01T14:38:38;5.32;;;2.70;;
40122;SDS011;25832;45.490;4.912;2023-02-01T14:41:15;4.60;;;2.60;;
40122;SDS011;25832;45.490;4.912;2023-02-01T14:44:36;7.45;;;3.10;;
40122;SDS011;25832;45.490;4.912;2023-02-01T14:49:35;6.70;;;5.03;;
40122;SDS011;25832;45.490;4.912;2023-02-01T14:52:36;7.90;;;4.18;;
40122;SDS011;25832;45.490;4.912;2023-02-01T14:55:11;6.10;;;4.57;;
40122;SDS011;25832;45.490;4.912;2023-02-01T14:58:00;6.65;;;4.07;;
40122;SDS011;25832;45.490;4.912;2023-02-01T15:03:12;4.97;;;3.00;;
40122;SDS011;25832;45.490;4.912;2023-02-01T15:05:50;8.60;;;3.90;;
40122;SDS011;25832;45.490;4.912;2023-02-01T15:08:27;5.82;;;3.85;;
40122;SDS011;25832;45.490;4.912;2023-02-01T15:10:55;7.05;;;3.45;;
40122;SDS011;25832;45.490;4.912;2023-02-01T15:13:24;7.18;;;4.95;;
40122;SDS011;25832;45.490;4.912;2023-02-01T15:16:11;7.55;;;4.65;;
40122;SDS011;25832;45.490;4.912;2023-02-01T15:18:39;5.53;;;3.42;;
40122;SDS011;25832;45.490;4.912;2023-02-01T15:21:05;9.05;;;4.05;;
40122;SDS011;25832;45.490;4.912;2023-02-01T15:23:39;5.22;;;3.85;;
40122;SDS011;25832;45.490;4.912;2023-02-01T15:26:05;10.38;;;4.47;;
40122;SDS011;25832;45.490;4.912;2023-02-01T15:28:31;8.73;;;4.90;;
40122;SDS011;25832;45.490;4.912;2023-02-01T15:33:24;6.00;;;3.50;;
40122;SDS011;25832;45.490;4.912;2023-02-01T15:41:02;9.23;;;4.90;;
40122;SDS011;25832;45.490;4.912;2023-02-01T15:46:25;11.65;;;4.45;;
40122;SDS011;25832;45.490;4.912;2023-02-01T15:49:01;12.00;;;3.67;;
40122;SDS011;25832;45.490;4.912;2023-02-01T15:51:29;7.63;;;3.67;;
40122;SDS011;25832;45.490;4.912;2023-02-01T15:53:58;12.45;;;3.90;;
40122;SDS011;25832;45.490;4.912;2023-02-01T15:56:34;8.00;;;4.00;;
40122;SDS011;25832;45.490;4.912;2023-02-01T15:59:12;9.93;;;3.88;;
40122;SDS011;25832;45.490;4.912;2023-02-01T16:01:41;7.18;;;3.47;;
40122;SDS011;25832;45.490;4.912;2023-02-01T16:04:26;8.13;;;3.10;;
40122;SDS011;25832;45.490;4.912;2023-02-01T16:06:56;6.22;;;3.97;;
40122;SDS011;25832;45.490;4.912;2023-02-01T16:09:35;6.38;;;3.35;;
40122;SDS011;25832;45.490;4.912;2023-02-01T16:12:03;9.18;;;3.95;;
40122;SDS011;25832;45.490;4.912;2023-02-01T16:14:56;6.45;;;3.70;;
40122;SDS011;25832;45.490;4.912;2023-02-01T16:17:22;10.90;;;5.10;;
40122;SDS011;25832;45.490;4.912;2023-02-01T16:19:48;10.45;;;4.75;;
40122;SDS011;25832;45.490;4.912;2023-02-01T16:22:13;6.07;;;3.67;;
40122;SDS011;25832;45.490;4.912;2023-02-01T16:24:39;7.45;;;3.63;;
40122;SDS011;25832;45.490;4.912;2023-02-01T16:27:05;6.00;;;3.13;;
40122;SDS011;25832;45.490;4.912;2023-02-01T16:29:32;6.70;;;3.58;;
40122;SDS011;25832;45.490;4.912;2023-02-01T16:31:58;8.07;;;4.00;;
40122;SDS011;25832;45.490;4.912;2023-02-01T16:34:24;5.22;;;3.40;;
40122;SDS011;25832;45.490;4.912;2023-02-01T16:36:50;8.73;;;4.13;;
40122;SDS011;25832;45.490;4.912;2023-02-01T16:39:17;13.43;;;4.75;;
40122;SDS011;25832;45.490;4.912;2023-02-01T16:41:44;8.93;;;3.50;;
40122;SDS011;25832;45.490;4.912;2023-02-01T16:44:12;8.43;;;3.70;;
40122;SDS011;25832;45.490;4.912;2023-02-01T16:46:39;10.65;;;3.95;;
40122;SDS011;25832;45.490;4.912;2023-02-01T16:49:15;9.60;;;3.75;;
40122;SDS011;25832;45.490;4.912;2023-02-01T16:51:47;8.15;;;3.45;;
40122;SDS011;25832;45.490;4.912;2023-02-01T16:54:15;8.27;;;3.97;;
40122;SDS011;25832;45.490;4.912;2023-02-01T16:56:41;9.73;;;3.28;;
40122;SDS011;25832;45.490;4.912;2023-02-01T16:59:08;10.52;;;4.28;;
40122;SDS011;25832;45.490;4.912;2023-02-01T17:01:34;8.90;;;4.38;;
40122;SDS011;25832;45.490;4.912;2023-02-01T17:04:02;12.60;;;5.30;;
40122;SDS011;25832;45.490;4.912;2023-02-01T17:06:28;10.32;;;5.43;;
40122;SDS011;25832;45.490;4.912;2023-02-01T17:08:57;14.60;;;4.90;;
40122;SDS011;25832;45.490;4.912;2023-02-01T17:11:24;12.30;;;4.80;;
40122;SDS011;25832;45.490;4.912;2023-02-01T17:13:50;15.10;;;5.50;;
40122;SDS011;25832;45.490;4.912;2023-02-01T17:19:00;8.35;;;4.15;;
40122;SDS011;25832;45.490;4.912;2023-02-01T17:21:30;11.68;;;3.83;;